Time;durP1;ratioP1;P1;durP2;ratioP2;P2;SDS_P1;SDS_P2;PMS_P1;PMS_P2;Temp;Humidity;BMP_temperature;BMP_pressure;BME280_temperature;BME280_humidity;BME280_pressure;Samples;Min_cycle;Max_cycle;Signal;HPM_P1;HPM_P2
2022/03/18 00:01:50;;;;;;;;;;;;;;;20.83;42.39;103578.72;7280659;19;152491;-60
2022/03/18 00:04:17;;;;;;;;;;;;;;;20.83;42.58;103581.53;7282165;19;154041;-63
2022/03/18 00:06:44;;;;;;;;;;;;;;;20.79;42.58;103596.31;7278240;19;153335;-62
2022/03/18 00:09:11;;;;;;;;;;;;;;;20.79;42.40;103597.16;7281881;19;152975;-59
2022/03/18 00:11:38;;;;;;;;;;;;;;;20.78;42.54;103619.88;7285034;19;153168;-62
2022/03/18 00:14:05;;;;;;;;;;;;;;;20.74;42.39;103624.28;7281378;19;152456;-62
2022/03/18 00:16:31;;;;;;;;;;;;;;;20.72;42.53;103620.84;7279428;19;153034;-61
2022/03/18 00:19:00;;;;;;;;;;;;;;;20.71;42.22;103619.16;7277108;19;153391;-61
2022/03/18 00:21:27;;;;;;;;;;;;;;;20.71;42.31;103616.34;7278841;19;152988;-61
2022/03/18 00:23:54;;;;;;;;;;;;;;;20.70;42.64;103615.50;7282097;19;153328;-60
2022/03/18 00:26:21;;;;;;;;;;;;;;;20.67;42.51;103615.13;7277233;19;154169;-61
2022/03/18 00:28:48;;;;;;;;;;;;;;;20.65;42.53;103629.41;7278389;19;152002;-60
2022/03/18 00:31:15;;;;;;;;;;;;;;;20.65;42.67;103623.81;7281428;19;152577;-62
2022/03/18 00:33:42;;;;;;;;;;;;;;;20.63;42.67;103625.13;7284447;19;153392;-61
2022/03/18 00:36:09;;;;;;;;;;;;;;;20.65;42.68;103622.94;7279591;19;152407;-59
2022/03/18 00:38:35;;;;;;;;;;;;;;;20.62;43.18;103618.69;7278696;19;154608;-59
2022/03/18 00:41:02;;;;;;;;;;;;;;;20.63;42.84;103631.59;7277658;19;152562;-61
2022/03/18 00:43:29;;;;;;;;;;;;;;;20.55;43.24;103648.81;7280831;19;153559;-62
2022/03/18 00:45:56;;;;;;;;;;;;;;;20.58;43.06;103644.69;7280246;19;154131;-61
2022/03/18 00:53:35;;;;;;;;;;;;;;;20.57;43.46;103652.25;7277593;19;153559;-62
2022/03/18 00:56:02;;;;;;;;;;;;;;;20.58;43.22;103661.53;7289238;19;151973;-62
2022/03/18 00:58:29;;;;;;;;;;;;;;;20.55;43.44;103660.06;7280243;19;153710;-63
2022/03/18 01:00:56;;;;;;;;;;;;;;;20.54;43.79;103658.34;7277696;19;151551;-60
2022/03/18 01:03:23;;;;;;;;;;;;;;;20.52;43.58;103649.31;7280946;19;152802;-62
2022/03/18 01:05:51;;;;;;;;;;;;;;;20.55;43.89;103656.41;7279107;19;153793;-61
2022/03/18 01:08:18;;;;;;;;;;;;;;;20.53;43.81;103658.59;7278412;19;152507;-61
2022/03/18 01:10:45;;;;;;;;;;;;;;;20.53;44.32;103662.28;7279836;19;153511;-60
2022/03/18 01:13:12;;;;;;;;;;;;;;;20.51;44.28;103666.41;7280003;19;153407;-59
2022/03/18 01:15:38;;;;;;;;;;;;;;;20.49;44.26;103663.00;7285977;19;152276;-61
2022/03/18 01:18:05;;;;;;;;;;;;;;;20.50;44.66;103659.94;7278501;19;153400;-60
2022/03/18 01:20:32;;;;;;;;;;;;;;;20.48;44.47;103659.34;7280440;19;152170;-59
2022/03/18 01:23:00;;;;;;;;;;;;;;;20.47;44.86;103656.75;7278372;19;153491;-60
2022/03/18 01:25:27;;;;;;;;;;;;;;;20.48;45.04;103656.53;7278212;19;154204;-61
2022/03/18 01:27:54;;;;;;;;;;;;;;;20.46;44.68;103663.47;7278451;19;152207;-59
2022/03/18 01:30:21;;;;;;;;;;;;;;;20.46;44.96;103669.09;7280196;19;153642;-61
2022/03/18 01:32:47;;;;;;;;;;;;;;;20.44;44.61;103677.78;7277889;19;153259;-59
2022/03/18 01:35:14;;;;;;;;;;;;;;;20.44;45.22;103671.28;7278560;19;151898;-61
2022/03/18 01:37:41;;;;;;;;;;;;;;;20.44;44.86;103669.34;7285735;19;152772;-61
2022/03/18 01:40:08;;;;;;;;;;;;;;;20.41;45.01;103669.81;7277619;19;152171;-60
2022/03/18 01:42:35;;;;;;;;;;;;;;;20.41;45.01;103667.00;7278713;19;154081;-60
2022/03/18 01:45:03;;;;;;;;;;;;;;;20.40;45.56;103676.50;7275944;19;153418;-58
2022/03/18 01:47:29;;;;;;;;;;;;;;;20.40;45.39;103668.09;7277349;19;152455;-59
2022/03/18 01:49:58;;;;;;;;;;;;;;;20.39;45.54;103672.03;7280102;19;152502;-58
2022/03/18 01:52:25;;;;;;;;;;;;;;;20.36;45.23;103669.66;7278720;19;154507;-60
2022/03/18 01:54:52;;;;;;;;;;;;;;;20.37;45.27;103663.81;7275792;19;152884;-60
2022/03/18 01:57:20;;;;;;;;;;;;;;;20.34;45.55;103661.50;7277470;19;152628;-58
2022/03/18 01:59:47;;;;;;;;;;;;;;;20.33;45.44;103665.41;7283669;19;154160;-61
2022/03/18 02:02:15;;;;;;;;;;;;;;;20.33;45.29;103659.78;7272675;19;153732;-60
2022/03/18 02:04:43;;;;;;;;;;;;;;;20.27;45.57;103671.09;7275006;19;154220;-59
2022/03/18 02:07:10;;;;;;;;;;;;;;;20.30;45.62;103670.66;7279387;19;152609;-62
2022/03/18 02:09:38;;;;;;;;;;;;;;;20.29;45.87;103666.09;7275626;19;152647;-60
2022/03/18 02:12:05;;;;;;;;;;;;;;;20.25;46.10;103673.28;7272813;19;153492;-62
2022/03/18 02:14:34;;;;;;;;;;;;;;;20.23;46.12;103678.28;7275870;19;152053;-63
2022/03/18 02:17:02;;;;;;;;;;;;;;;20.23;45.79;103689.50;7277117;19;153258;-59
2022/03/18 02:19:29;;;;;;;;;;;;;;;20.21;45.90;103680.50;7275438;19;154443;-63
2022/03/18 02:21:57;;;;;;;;;;;;;;;20.19;45.89;103685.47;7282363;19;152682;-63
2022/03/18 02:24:24;;;;;;;;;;;;;;;20.17;45.81;103685.69;7275638;19;154306;-62
2022/03/18 02:26:51;;;;;;;;;;;;;;;20.16;45.72;103671.94;7278757;19;151931;-61
2022/03/18 02:29:19;;;;;;;;;;;;;;;20.15;45.78;103684.25;7276258;19;153501;-62
2022/03/18 02:31:46;;;;;;;;;;;;;;;20.14;46.06;103682.53;7275486;19;153362;-62
2022/03/18 02:34:13;;;;;;;;;;;;;;;20.13;46.09;103686.41;7274471;19;152370;-62
2022/03/18 02:36:41;;;;;;;;;;;;;;;20.11;46.02;103681.06;7274716;19;152668;-62
2022/03/18 02:39:07;;;;;;;;;;;;;;;20.10;46.05;103684.09;7274691;19;153317;-62
2022/03/18 02:41:35;;;;;;;;;;;;;;;20.09;45.75;103685.19;7273731;19;151980;-60
2022/03/18 02:44:02;;;;;;;;;;;;;;;20.07;46.02;103698.63;7283675;19;153298;-61
2022/03/18 02:46:32;;;;;;;;;;;;;;;20.05;45.94;103696.03;7278120;19;151944;-62
2022/03/18 02:49:01;;;;;;;;;;;;;;;20.04;46.01;103699.94;7274432;19;154258;-61
2022/03/18 02:51:28;;;;;;;;;;;;;;;20.01;46.20;103696.75;7276351;19;153711;-60
2022/03/18 02:53:55;;;;;;;;;;;;;;;19.99;46.13;103708.22;7275093;19;152058;-60
2022/03/18 02:56:22;;;;;;;;;;;;;;;19.96;46.37;103712.34;7270815;19;152775;-60
2022/03/18 02:58:50;;;;;;;;;;;;;;;19.94;45.96;103711.72;7274187;19;153443;-61
2022/03/18 03:01:18;;;;;;;;;;;;;;;19.97;46.32;103722.50;7271803;19;152111;-60
2022/03/18 03:03:45;;;;;;;;;;;;;;;19.94;46.16;103727.72;7274964;19;153582;-59
2022/03/18 03:08:48;;;;;;;;;;;;;;;19.93;46.44;103726.88;7276100;19;154312;-60
2022/03/18 03:11:16;;;;;;;;;;;;;;;19.89;46.60;103725.63;7269589;19;153338;-58
2022/03/18 03:13:43;;;;;;;;;;;;;;;19.89;46.44;103731.25;7273730;19;151883;-60
2022/03/18 03:16:10;;;;;;;;;;;;;;;19.87;46.63;103733.41;7275824;19;153708;-61
2022/03/18 03:18:37;;;;;;;;;;;;;;;19.87;46.54;103735.38;7273297;19;154472;-61
2022/03/18 03:21:04;;;;;;;;;;;;;;;19.86;46.21;103733.66;7272796;19;151769;-61
2022/03/18 03:23:31;;;;;;;;;;;;;;;19.84;46.46;103733.03;7277166;19;152496;-60
2022/03/18 03:25:58;;;;;;;;;;;;;;;19.81;46.44;103737.16;7281524;19;153970;-61
2022/03/18 03:28:25;;;;;;;;;;;;;;;19.80;46.57;103732.66;7274169;19;153528;-60
2022/03/18 03:30:52;;;;;;;;;;;;;;;19.80;46.68;103741.09;7272900;19;153647;-60
2022/03/18 03:33:19;;;;;;;;;;;;;;;19.79;46.43;103746.91;7274530;19;151917;-60
2022/03/18 03:35:50;;;;;;;;;;;;;;;19.76;46.60;103751.03;7274371;19;153383;-62
2022/03/18 03:38:17;;;;;;;;;;;;;;;19.78;46.57;103750.81;7275065;19;153756;-60
2022/03/18 03:40:43;;;;;;;;;;;;;;;19.80;46.48;103755.09;7276676;19;152133;-60
2022/03/18 03:43:10;;;;;;;;;;;;;;;19.79;46.65;103755.34;7271903;19;152877;-59
2022/03/18 03:45:38;;;;;;;;;;;;;;;19.78;46.49;103756.41;7274162;19;153893;-59
2022/03/18 03:48:05;;;;;;;;;;;;;;;19.74;46.50;103761.66;7281498;19;151619;-61
2022/03/18 03:50:33;;;;;;;;;;;;;;;19.75;46.57;103759.72;7275308;19;153465;-59
2022/03/18 03:53:00;;;;;;;;;;;;;;;19.72;46.32;103772.22;7273841;19;151994;-60
2022/03/18 03:55:27;;;;;;;;;;;;;;;19.74;46.23;103775.69;7274762;19;153586;-61
2022/03/18 03:57:54;;;;;;;;;;;;;;;19.72;46.55;103768.56;7274844;19;154136;-62
2022/03/18 04:00:21;;;;;;;;;;;;;;;19.72;46.44;103768.56;7275627;19;152026;-61
2022/03/18 04:02:48;;;;;;;;;;;;;;;19.71;46.43;103764.06;7270365;19;153565;-60
2022/03/18 04:05:15;;;;;;;;;;;;;;;19.72;46.26;103763.81;7272286;19;153728;-60
2022/03/18 04:07:42;;;;;;;;;;;;;;;19.69;46.63;103775.50;7277936;19;151938;-62
2022/03/18 04:10:10;;;;;;;;;;;;;;;19.70;46.60;103766.03;7286053;19;153576;-59
2022/03/18 04:12:37;;;;;;;;;;;;;;;19.64;46.76;103764.13;7282107;19;151719;-61
2022/03/18 04:15:04;;;;;;;;;;;;;;;19.65;46.84;103773.41;7281715;19;152606;-60
2022/03/18 04:17:41;;;;;;;;;;;;;;;19.64;46.73;103777.31;7281596;19;153728;-60
2022/03/18 04:20:09;;;;;;;;;;;;;;;19.65;46.56;103774.28;7279893;19;152160;-61
2022/03/18 04:22:36;;;;;;;;;;;;;;;19.63;46.49;103776.44;7280867;19;153306;-61
2022/03/18 04:25:03;;;;;;;;;;;;;;;19.61;46.43;103770.22;7277634;19;153338;-61
2022/03/18 04:27:29;;;;;;;;;;;;;;;19.60;46.86;103767.66;7281889;19;151982;-61
2022/03/18 04:29:56;;;;;;;;;;;;;;;19.57;46.96;103768.13;7279788;19;153370;-59
2022/03/18 04:32:23;;;;;;;;;;;;;;;19.58;46.72;103767.88;7286772;19;154127;-60
2022/03/18 04:34:50;;;;;;;;;;;;;;;19.58;46.79;103770.66;7279521;19;153732;-61
2022/03/18 04:37:17;;;;;;;;;;;;;;;19.57;46.88;103766.19;7279845;19;153460;-59
2022/03/18 04:39:44;;;;;;;;;;;;;;;19.56;46.69;103760.78;7281698;19;152297;-60
2022/03/18 04:42:11;;;;;;;;;;;;;;;19.52;46.60;103758.47;7277705;19;154177;-60
2022/03/18 04:44:38;;;;;;;;;;;;;;;19.52;46.83;103763.22;7276944;19;153641;-60
2022/03/18 04:47:05;;;;;;;;;;;;;;;19.50;46.86;103774.66;7281167;19;151749;-60
2022/03/18 04:49:32;;;;;;;;;;;;;;;19.50;47.01;103774.66;7281217;19;153561;-59
2022/03/18 04:51:59;;;;;;;;;;;;;;;19.51;46.92;103781.97;7277432;19;153983;-61
2022/03/18 04:54:26;;;;;;;;;;;;;;;19.49;46.79;103786.09;7286126;19;152021;-61
2022/03/18 04:59:29;;;;;;;;;;;;;;;19.45;46.78;103788.50;7281282;19;151857;-61
2022/03/18 05:01:55;;;;;;;;;;;;;;;19.43;46.62;103784.19;7279399;19;153890;-61
2022/03/18 05:04:23;;;;;;;;;;;;;;;19.42;46.71;103797.38;7277517;19;153675;-60
2022/03/18 05:06:49;;;;;;;;;;;;;;;19.41;46.62;103790.03;7277979;19;152377;-61
2022/03/18 05:09:16;;;;;;;;;;;;;;;19.42;46.49;103796.50;7280765;19;153477;-60
2022/03/18 05:11:43;;;;;;;;;;;;;;;19.41;46.88;103791.97;7277408;19;152223;-60
2022/03/18 05:14:10;;;;;;;;;;;;;;;19.39;47.00;103799.78;7286528;19;152286;-60
2022/03/18 05:16:37;;;;;;;;;;;;;;;19.38;46.97;103803.66;7277832;19;153868;-60
2022/03/18 05:19:04;;;;;;;;;;;;;;;19.40;47.01;103810.75;7278271;19;151844;-59
2022/03/18 05:21:31;;;;;;;;;;;;;;;19.39;47.24;103813.78;7278440;19;153096;-61
2022/03/18 05:23:58;;;;;;;;;;;;;;;19.40;46.89;103809.88;7279744;19;154248;-61
2022/03/18 05:26:24;;;;;;;;;;;;;;;19.40;47.23;103818.28;7277851;19;152009;-60
2022/03/18 05:28:51;;;;;;;;;;;;;;;19.40;46.86;103821.94;7280747;19;152921;-60
2022/03/18 05:31:18;;;;;;;;;;;;;;;19.41;47.16;103822.81;7278285;19;153875;-62
2022/03/18 05:33:45;;;;;;;;;;;;;;;19.40;47.12;103824.75;7277423;19;152015;-61
2022/03/18 05:36:12;;;;;;;;;;;;;;;19.37;46.86;103833.63;7286364;19;152626;-62
2022/03/18 05:38:39;;;;;;;;;;;;;;;19.37;47.26;103842.06;7277037;19;152395;-60
2022/03/18 05:41:07;;;;;;;;;;;;;;;19.39;46.96;103837.09;7278092;19;152945;-61
2022/03/18 05:43:34;;;;;;;;;;;;;;;19.38;47.05;103840.09;7275689;19;153568;-59
2022/03/18 05:46:00;;;;;;;;;;;;;;;19.37;47.13;103850.47;7277992;19;152258;-60
2022/03/18 05:48:27;;;;;;;;;;;;;;;19.37;47.25;103850.47;7280161;19;152967;-61
2022/03/18 05:50:54;;;;;;;;;;;;;;;19.32;47.28;103843.81;7278777;19;154469;-60
2022/03/18 05:53:21;;;;;;;;;;;;;;;19.30;47.24;103843.22;7277519;19;151722;-61
2022/03/18 05:58:23;;;;;;;;;;;;;;;19.27;47.44;103843.66;7286094;19;153240;-59
2022/03/18 06:00:50;;;;;;;;;;;;;;;19.24;47.42;103852.53;7278761;19;153404;-60
2022/03/18 06:03:18;;;;;;;;;;;;;;;19.24;47.36;103841.31;7276607;19;153410;-61
2022/03/18 06:05:45;;;;;;;;;;;;;;;19.22;47.55;103846.28;7276468;19;152459;-61
2022/03/18 06:13:25;;;;;;;;;;;;;;;19.18;47.25;103864.66;7279331;19;151508;-60
2022/03/18 06:15:52;;;;;;;;;;;;;;;19.20;47.25;103866.16;7278519;19;152807;-60
2022/03/18 06:18:37;;;;;;;;;;;;;;;19.18;47.41;103862.69;7275342;19;154018;-61
2022/03/18 06:21:06;;;;;;;;;;;;;;;19.17;47.41;103871.34;7284111;19;151960;-60
2022/03/18 06:23:33;;;;;;;;;;;;;;;19.22;47.59;103865.91;7272354;19;154192;-61
2022/03/18 06:26:01;;;;;;;;;;;;;;;19.19;47.32;103869.16;7278881;19;152398;-62
2022/03/18 06:28:28;;;;;;;;;;;;;;;19.18;47.35;103864.66;7278280;19;153799;-60
2022/03/18 06:30:55;;;;;;;;;;;;;;;19.17;47.42;103883.41;7275717;19;153970;-60
2022/03/18 06:33:22;;;;;;;;;;;;;;;19.17;47.36;103879.78;7278263;19;151886;-60
2022/03/18 06:35:49;;;;;;;;;;;;;;;19.16;47.52;103889.25;7276282;19;153129;-61
2022/03/18 06:38:15;;;;;;;;;;;;;;;19.16;47.64;103892.06;7276186;19;154752;-60
2022/03/18 06:40:42;;;;;;;;;;;;;;;19.16;47.48;103894.84;7278617;19;152335;-62
2022/03/18 06:43:09;;;;;;;;;;;;;;;19.13;47.32;103896.16;7279084;19;152641;-59
2022/03/18 06:45:36;;;;;;;;;;;;;;;19.13;47.24;103904.56;7275921;19;152516;-60
2022/03/18 06:48:03;;;;;;;;;;;;;;;19.12;47.52;103900.06;7277496;19;153987;-60
2022/03/18 06:50:30;;;;;;;;;;;;;;;19.10;47.52;103910.63;7276811;19;154146;-62
2022/03/18 06:52:57;;;;;;;;;;;;;;;19.09;47.67;103903.31;7277256;19;152102;-60
2022/03/18 06:55:24;;;;;;;;;;;;;;;19.07;47.62;103900.75;7275480;19;154074;-60
2022/03/18 06:57:51;;;;;;;;;;;;;;;19.06;47.58;103910.22;7275806;19;153932;-59
2022/03/18 07:00:18;;;;;;;;;;;;;;;19.10;47.62;103921.84;7277923;19;151956;-62
2022/03/18 07:02:44;;;;;;;;;;;;;;;19.09;47.56;103922.91;7276974;19;151743;-61
2022/03/18 07:05:12;;;;;;;;;;;;;;;19.09;47.46;103936.94;7283652;19;153704;-60
2022/03/18 07:07:40;;;;;;;;;;;;;;;19.07;47.47;103950.34;7275288;19;153421;-60
2022/03/18 07:10:07;;;;;;;;;;;;;;;19.07;47.78;103953.13;7275004;19;153696;-61
2022/03/18 07:12:34;;;;;;;;;;;;;;;19.07;47.50;103954.00;7277850;19;152227;-62
2022/03/18 07:15:01;;;;;;;;;;;;;;;19.07;47.62;103956.78;7275645;19;153502;-60
2022/03/18 07:20:05;;;;;;;;;;;;;;;19.10;48.45;103972.28;7274246;19;152211;-61
2022/03/18 07:22:32;;;;;;;;;;;;;;;19.10;47.96;103959.13;7274850;19;152574;-62
2022/03/18 07:24:59;;;;;;;;;;;;;;;19.10;47.07;103959.13;7283646;19;154419;-60
2022/03/18 07:27:26;;;;;;;;;;;;;;;19.11;46.88;103957.19;7274886;19;153646;-61
2022/03/18 07:29:53;;;;;;;;;;;;;;;19.11;46.66;103968.41;7273614;19;153757;-61
2022/03/18 07:32:20;;;;;;;;;;;;;;;19.13;47.15;103962.56;7274952;19;152232;-61
2022/03/18 07:34:50;;;;;;;;;;;;;;;19.15;47.10;103972.47;7276081;19;153612;-61
2022/03/18 07:37:16;;;;;;;;;;;;;;;19.19;46.83;103972.88;7272538;19;154136;-61
2022/03/18 07:39:43;;;;;;;;;;;;;;;19.21;46.83;103973.53;7276597;19;151680;-62
2022/03/18 07:42:10;;;;;;;;;;;;;;;19.28;46.79;103971.53;7277958;19;153623;-61
2022/03/18 07:44:37;;;;;;;;;;;;;;;19.40;46.97;103978.97;7277937;19;153520;-64
2022/03/18 07:47:04;;;;;;;;;;;;;;;19.34;46.38;103968.69;7287917;19;152217;-63
2022/03/18 07:49:32;;;;;;;;;;;;;;;19.43;46.18;103963.66;7280700;19;153901;-64
2022/03/18 07:51:59;;;;;;;;;;;;;;;19.51;45.56;103969.00;7283871;19;151720;-61
2022/03/18 07:54:25;;;;;;;;;;;;;;;19.58;45.83;103971.78;7282201;19;152761;-64
2022/03/18 07:56:54;;;;;;;;;;;;;;;19.66;45.28;103977.09;7281949;19;152443;-62
2022/03/18 07:59:23;;;;;;;;;;;;;;;19.73;45.20;103975.94;7279769;19;152031;-63
2022/03/18 08:01:50;;;;;;;;;;;;;;;19.82;44.86;103980.16;7280807;19;152490;-62
2022/03/18 08:04:17;;;;;;;;;;;;;;;19.89;44.69;103983.78;7279234;19;153619;-62
2022/03/18 08:06:44;;;;;;;;;;;;;;;19.96;44.71;103984.56;7280974;19;151964;-63
2022/03/18 08:09:11;;;;;;;;;;;;;;;20.05;44.79;103987.06;7289142;19;153379;-63
2022/03/18 08:11:37;;;;;;;;;;;;;;;20.13;44.41;103982.03;7278248;19;152464;-61
2022/03/18 08:14:04;;;;;;;;;;;;;;;20.20;44.12;103981.97;7279963;19;153737;-63
2022/03/18 08:16:31;;;;;;;;;;;;;;;20.28;43.98;103987.28;7279439;19;153480;-61
2022/03/18 08:18:58;;;;;;;;;;;;;;;20.39;44.30;103989.34;7278839;19;151683;-62
2022/03/18 08:21:25;;;;;;;;;;;;;;;20.45;44.10;103996.81;7282860;19;153272;-64
2022/03/18 08:23:52;;;;;;;;;;;;;;;20.52;43.54;103996.75;7279289;19;152213;-61
2022/03/18 08:26:19;;;;;;;;;;;;;;;20.59;43.66;104001.19;7281568;19;151958;-61
2022/03/18 08:28:46;;;;;;;;;;;;;;;20.69;43.27;103995.88;7281832;19;152878;-61
2022/03/18 08:31:13;;;;;;;;;;;;;;;20.73;43.56;103999.94;7285837;19;154039;-62
2022/03/18 08:33:42;;;;;;;;;;;;;;;20.81;43.26;103988.38;7279646;19;153220;-62
2022/03/18 08:36:09;;;;;;;;;;;;;;;20.84;43.71;103989.88;7281590;19;155127;-63
2022/03/18 08:38:36;;;;;;;;;;;;;;;20.88;43.92;103993.06;7281752;19;152153;-61
2022/03/18 08:41:03;;;;;;;;;;;;;;;20.94;43.40;103990.13;7281407;19;152722;-62
2022/03/18 08:43:30;;;;;;;;;;;;;;;20.96;43.70;104002.03;7279280;19;153994;-62
2022/03/18 08:45:58;;;;;;;;;;;;;;;20.96;43.53;104001.16;7281028;19;152226;-61
2022/03/18 08:48:25;;;;;;;;;;;;;;;20.97;43.40;103997.25;7279795;19;153752;-62
2022/03/18 08:50:52;;;;;;;;;;;;;;;20.98;43.21;103994.22;7280759;19;153321;-62
2022/03/18 08:53:19;;;;;;;;;;;;;;;20.99;43.04;104004.34;7288596;19;151960;-61
2022/03/18 08:55:46;;;;;;;;;;;;;;;21.00;43.18;103986.38;7277442;19;153996;-62
2022/03/18 08:58:13;;;;;;;;;;;;;;;21.01;42.75;104004.13;7277941;19;152298;-61
2022/03/18 09:00:40;;;;;;;;;;;;;;;21.02;42.68;104000.22;7279567;19;152432;-61
2022/03/18 09:03:07;;;;;;;;;;;;;;;21.03;42.63;103991.53;7276277;19;153447;-62
2022/03/18 09:05:35;;;;;;;;;;;;;;;21.04;42.95;103993.25;7281791;19;152230;-61
2022/03/18 09:08:02;;;;;;;;;;;;;;;21.04;42.59;104001.69;7277765;19;155474;-61
2022/03/18 09:10:28;;;;;;;;;;;;;;;21.05;42.47;103994.09;7279769;19;153370;-61
2022/03/18 09:13:00;;;;;;;;;;;;;;;21.06;42.39;103995.84;7279042;19;152017;-64
2022/03/18 09:15:28;;;;;;;;;;;;;;;21.06;42.57;104002.31;7286242;19;154797;-62
2022/03/18 09:17:55;;;;;;;;;;;;;;;21.08;42.65;104011.34;7279606;19;151757;-61
2022/03/18 09:20:22;;;;;;;;;;;;;;;21.07;42.67;104011.63;7280101;19;152503;-62
2022/03/18 09:22:52;;;;;;;;;;;;;;;21.07;42.30;104006.84;7279571;19;152518;-62
2022/03/18 09:25:20;;;;;;;;;;;;;;;21.07;42.63;104015.28;7275257;19;152908;-60
2022/03/18 09:27:47;;;;;;;;;;;;;;;21.06;42.36;104021.13;7279506;19;153309;-63
2022/03/18 09:30:25;;;;;;;;;;;;;;;21.07;42.30;104014.41;7278333;19;153369;-63
2022/03/18 09:32:52;;;;;;;;;;;;;;;21.07;42.15;104023.72;7279125;19;152062;-62
2022/03/18 09:35:20;;;;;;;;;;;;;;;21.07;42.46;104028.47;7283906;19;154678;-61
2022/03/18 09:37:47;;;;;;;;;;;;;;;21.06;42.33;104021.13;7278462;19;152567;-63
2022/03/18 09:40:14;;;;;;;;;;;;;;;21.06;42.39;104023.94;7277142;19;152919;-62
2022/03/18 09:43:03;;;;;;;;;;;;;;;21.06;42.28;104035.19;7278958;19;154896;-62
2022/03/18 09:45:32;;;;;;;;;;;;;;;21.04;42.04;104026.97;7277750;19;152224;-60
2022/03/18 09:48:00;;;;;;;;;;;;;;;21.05;42.05;104031.50;7278259;19;153452;-62
2022/03/18 09:50:27;;;;;;;;;;;;;;;21.05;42.47;104039.94;7279016;19;154212;-62
2022/03/18 09:52:54;;;;;;;;;;;;;;;21.06;42.27;104036.06;7277825;19;152413;-61
2022/03/18 09:55:21;;;;;;;;;;;;;;;21.05;42.44;104039.09;7280194;19;152777;-61
2022/03/18 09:57:48;;;;;;;;;;;;;;;21.04;42.17;104040.19;7283069;19;154154;-62
2022/03/18 10:00:15;;;;;;;;;;;;;;;21.04;42.24;104045.81;7277844;19;153218;-61
2022/03/18 10:02:42;;;;;;;;;;;;;;;21.04;42.44;104040.19;7277269;19;153636;-61
2022/03/18 10:05:11;;;;;;;;;;;;;;;21.05;42.15;104036.28;7276670;19;151990;-61
2022/03/18 10:07:38;;;;;;;;;;;;;;;21.04;41.93;104034.56;7280101;19;153339;-64
2022/03/18 10:10:08;;;;;;;;;;;;;;;21.04;42.25;104038.22;7277877;19;153436;-63
2022/03/18 10:12:35;;;;;;;;;;;;;;;21.02;42.38;104042.38;7277490;19;151786;-62
2022/03/18 10:15:04;;;;;;;;;;;;;;;21.03;41.96;104044.09;7277310;19;152635;-60
2022/03/18 10:17:40;;;;;;;;;;;;;;;21.02;41.96;104040.44;7278616;19;155804;-61
2022/03/18 10:20:09;;;;;;;;;;;;;;;21.01;42.01;104035.03;7286147;19;151796;-62
2022/03/18 10:22:36;;;;;;;;;;;;;;;21.00;42.12;104037.00;7275579;19;154226;-63
2022/03/18 10:25:04;;;;;;;;;;;;;;;21.01;42.29;104046.28;7274490;19;152210;-62
2022/03/18 10:27:32;;;;;;;;;;;;;;;20.98;42.07;104047.63;7242047;19;153895;-62
2022/03/18 10:29:59;;;;;;;;;;;;;;;20.99;42.46;104046.50;7271071;19;153538;-63
2022/03/18 10:32:27;;;;;;;;;;;;;;;20.99;42.32;104052.13;7275629;19;152142;-62
2022/03/18 10:37:40;;;;;;;;;;;;;;;20.97;42.22;104053.47;7276119;19;153161;-62
2022/03/18 10:40:08;;;;;;;;;;;;;;;20.97;42.20;104059.97;7276954;19;151785;-60
2022/03/18 10:42:35;;;;;;;;;;;;;;;20.96;42.36;104060.19;7281622;19;153434;-63
2022/03/18 10:45:02;;;;;;;;;;;;;;;20.93;42.09;104053.09;7274545;19;152491;-61
2022/03/18 10:47:35;;;;;;;;;;;;;;;20.95;42.27;104058.47;7275000;19;152625;-62
2022/03/18 10:50:12;;;;;;;;;;;;;;;20.94;42.33;104062.41;7275243;19;153842;-61
2022/03/18 10:52:39;;;;;;;;;;;;;;;20.92;42.11;104057.00;7277339;19;152509;-63
2022/03/18 10:55:17;;;;;;;;;;;;;;;20.92;42.45;104067.38;7274542;19;153503;-61
2022/03/18 10:57:54;;;;;;;;;;;;;;;20.92;42.02;104070.19;7275731;19;153989;-63
2022/03/18 11:00:22;;;;;;;;;;;;;;;20.91;42.45;104060.88;7276131;19;152471;-63
2022/03/18 11:02:49;;;;;;;;;;;;;;;20.91;42.23;104068.47;7275220;19;152869;-63
2022/03/18 11:05:19;;;;;;;;;;;;;;;20.91;42.31;104071.28;7279289;19;153876;-61
2022/03/18 11:07:46;;;;;;;;;;;;;;;20.90;42.25;104075.16;7272466;19;153085;-61
2022/03/18 11:12:53;;;;;;;;;;;;;;;20.90;42.11;104081.66;7275792;19;152036;-61
2022/03/18 11:15:21;;;;;;;;;;;;;;;20.91;42.20;104076.91;7274641;19;152515;-63
2022/03/18 11:17:49;;;;;;;;;;;;;;;20.90;42.42;104080.78;7277501;19;153557;-63
2022/03/18 11:20:20;;;;;;;;;;;;;;;20.89;42.35;104073.47;7282888;19;152230;-62
2022/03/18 11:22:49;;;;;;;;;;;;;;;20.88;42.35;104083.00;7283339;19;153117;-62
2022/03/18 11:25:16;;;;;;;;;;;;;;;20.90;42.49;104084.47;7277551;19;153329;-61
2022/03/18 11:27:44;;;;;;;;;;;;;;;20.90;42.25;104080.78;7288866;19;152215;-62
2022/03/18 11:30:20;;;;;;;;;;;;;;;20.88;42.36;104086.66;7276846;19;154244;-60
2022/03/18 11:32:56;;;;;;;;;;;;;;;20.88;42.13;104083.84;7282706;19;151859;-61
2022/03/18 11:35:23;;;;;;;;;;;;;;;20.90;42.26;104081.66;7281803;19;153679;-61
2022/03/18 11:38:05;;;;;;;;;;;;;;;20.89;42.51;104076.28;7279216;19;153815;-61
2022/03/18 11:40:34;;;;;;;;;;;;;;;20.89;42.11;104073.47;7280456;19;152323;-62
2022/03/18 11:43:11;;;;;;;;;;;;;;;20.90;42.12;104075.16;7280535;19;154546;-61
2022/03/18 11:45:41;;;;;;;;;;;;;;;20.83;42.20;104075.25;7280168;19;154126;-62
2022/03/18 11:48:28;;;;;;;;;;;;;;;20.86;42.33;104070.03;7289107;19;152398;-60
2022/03/18 11:50:55;;;;;;;;;;;;;;;20.87;42.54;104073.69;7278306;19;153651;-62
2022/03/18 11:53:32;;;;;;;;;;;;;;;20.90;42.48;104063.94;7282453;19;152440;-62
2022/03/18 11:56:08;;;;;;;;;;;;;;;20.91;42.56;104066.50;7281127;19;152098;-61
2022/03/18 11:58:35;;;;;;;;;;;;;;;20.90;42.31;104064.78;7280790;19;154374;-61
2022/03/18 12:01:02;;;;;;;;;;;;;;;20.91;42.44;104062.84;7281881;19;151903;-63
2022/03/18 12:03:30;;;;;;;;;;;;;;;20.94;42.50;104053.97;7281784;19;153702;-62
2022/03/18 12:05:59;;;;;;;;;;;;;;;20.90;42.22;104053.53;7276316;19;154194;-62
2022/03/18 12:08:42;;;;;;;;;;;;;;;20.94;42.00;104056.78;7279311;19;151844;-61
2022/03/18 12:11:18;;;;;;;;;;;;;;;20.95;42.23;104066.88;7285062;19;152654;-60
2022/03/18 12:13:45;;;;;;;;;;;;;;;20.96;42.21;104052.63;7277180;19;152231;-62
2022/03/18 12:16:11;;;;;;;;;;;;;;;20.96;41.93;104047.00;7279067;19;153134;-62
2022/03/18 12:18:38;;;;;;;;;;;;;;;20.99;42.07;104046.50;7277922;19;153550;-62
2022/03/18 12:21:05;;;;;;;;;;;;;;;21.00;41.90;104048.22;7279266;19;152221;-62
2022/03/18 12:23:34;;;;;;;;;;;;;;;21.00;42.23;104048.22;7276722;19;152531;-61
2022/03/18 12:26:06;;;;;;;;;;;;;;;21.00;41.80;104044.56;7275011;19;154249;-62
2022/03/18 12:28:42;;;;;;;;;;;;;;;21.03;42.29;104046.91;7273981;19;151893;-62
2022/03/18 12:31:19;;;;;;;;;;;;;;;21.02;42.30;104040.44;7274667;19;153734;-60
2022/03/18 12:33:46;;;;;;;;;;;;;;;21.03;42.08;104046.91;7283461;19;153689;-61
2022/03/18 12:36:13;;;;;;;;;;;;;;;21.02;42.17;104034.81;7278405;19;153939;-63
2022/03/18 12:38:45;;;;;;;;;;;;;;;21.01;42.31;104026.59;7275712;19;153372;-62
2022/03/18 12:41:18;;;;;;;;;;;;;;;21.03;42.09;104030.06;7276394;19;152000;-61
2022/03/18 12:43:45;;;;;;;;;;;;;;;21.03;41.95;104028.06;7275717;19;152677;-62
2022/03/18 12:46:14;;;;;;;;;;;;;;;21.03;42.21;104024.44;7274059;19;154008;-60
2022/03/18 12:48:46;;;;;;;;;;;;;;;21.01;42.32;104023.78;7276222;19;151781;-61
2022/03/18 12:51:13;;;;;;;;;;;;;;;21.01;42.21;104015.38;7277428;19;152927;-60
2022/03/18 12:53:46;;;;;;;;;;;;;;;21.00;42.06;104011.69;7274698;19;154015;-62
2022/03/18 12:56:19;;;;;;;;;;;;;;;21.00;42.29;104020.13;7282790;19;152394;-63
2022/03/18 12:58:46;;;;;;;;;;;;;;;21.03;42.27;104018.81;7277190;19;154339;-63